Time;durP1;ratioP1;P1;durP2;ratioP2;P2;SDS_P1;SDS_P2;PMS_P1;PMS_P2;Temp;Humidity;BMP_temperature;BMP_pressure;BME280_temperature;BME280_humidity;BME280_pressure;Samples;Min_cycle;Max_cycle;Signal;HPM_P1;HPM_P2
2023/09/07 00:00:29;;;;;;;;;;;;;;;;;;5017294;28;19925;-82
2023/09/07 00:02:54;;;;;;;;;;;;;;;;;;5040193;28;20452;-82
2023/09/07 00:05:20;;;;;;;;;;;;;;;;;;5043467;28;20011;-82
2023/09/07 00:07:45;;;;;;;;;;;;;;;;;;5017334;28;19975;-82
2023/09/07 00:10:10;;;;;;;;;;;;;;;;;;5017172;28;19984;-81
2023/09/07 00:12:39;;;;;;;;;;;;;;;;;;5047763;28;19921;-81
2023/09/07 00:15:06;;;;;;;;;;;;;;;;;;5019812;28;20304;-82
2023/09/07 00:17:31;;;;;;;;;;;;;;;;;;5033766;28;19922;-81
2023/09/07 00:19:58;;;;;;;;;;;;;;;;;;5019571;28;19928;-81
2023/09/07 00:22:23;;;;;;;;;;;;;;;;;;5035009;28;19925;-81
2023/09/07 00:24:49;;;;;;;;;;;;;;;;;;4997477;28;20356;-81
2023/09/07 00:27:14;;;;;;;;;;;;;;;;;;5017123;28;19921;-81
2023/09/07 00:29:39;;;;;;;;;;;;;;;;;;5016047;28;20408;-81
2023/09/07 00:32:09;;;;;;;;;;;;;;;;;;5039924;28;19984;-81
2023/09/07 00:34:41;;;;;;;;;;;;;;;;;;5025826;28;20377;-81
2023/09/07 00:37:06;;;;;;;;;;;;;;;;;;5003758;28;20005;-82
2023/09/07 00:39:32;;;;;;;;;;;;;;;;;;5038763;28;20539;-81
2023/09/07 00:41:59;;;;;;;;;;;;;;;;;;5004352;28;19964;-82
2023/09/07 00:44:24;;;;;;;;;;;;;;;;;;5019539;28;20816;-82
2023/09/07 00:46:50;;;;;;;;;;;;;;;;;;5033206;28;19925;-82
2023/09/07 00:49:19;;;;;;;;;;;;;;;;;;5048148;28;20027;-81
2023/09/07 00:51:45;;;;;;;;;;;;;;;;;;5029734;28;19933;-82
2023/09/07 00:54:10;;;;;;;;;;;;;;;;;;5016610;28;19921;-82
2023/09/07 00:56:35;;;;;;;;;;;;;;;;;;5014939;28;20487;-82
2023/09/07 00:59:08;;;;;;;;;;;;;;;;;;5006186;28;19957;-81
2023/09/07 01:01:34;;;;;;;;;;;;;;;;;;5017502;28;19922;-83
2023/09/07 01:03:59;;;;;;;;;;;;;;;;;;5047061;28;19961;-82
2023/09/07 01:06:36;;;;;;;;;;;;;;;;;;5015278;28;20022;-81
2023/09/07 01:09:04;;;;;;;;;;;;;;;;;;5047203;28;20922;-81
2023/09/07 01:11:35;;;;;;;;;;;;;;;;;;5048805;28;19921;-82
2023/09/07 01:14:00;;;;;;;;;;;;;;;;;;5017470;28;19972;-81
2023/09/07 01:16:25;;;;;;;;;;;;;;;;;;5017169;28;19921;-81
2023/09/07 01:18:51;;;;;;;;;;;;;;;;;;5048086;28;19928;-81
2023/09/07 01:21:16;;;;;;;;;;;;;;;;;;5033319;28;19924;-82
2023/09/07 01:23:42;;;;;;;;;;;;;;;;;;5023938;28;20019;-82
2023/09/07 01:26:08;;;;;;;;;;;;;;;;;;5015409;28;20310;-82
2023/09/07 01:28:33;;;;;;;;;;;;;;;;;;5029101;28;19924;-81
2023/09/07 01:31:04;;;;;;;;;;;;;;;;;;5045183;28;19921;-81
2023/09/07 01:33:32;;;;;;;;;;;;;;;;;;5007220;28;19922;-81
2023/09/07 01:36:00;;;;;;;;;;;;;;;;;;5029635;28;20459;-82
2023/09/07 01:38:26;;;;;;;;;;;;;;;;;;5032571;28;20280;-82
2023/09/07 01:40:51;;;;;;;;;;;;;;;;;;5018116;28;19921;-81
2023/09/07 01:43:16;;;;;;;;;;;;;;;;;;5016134;28;20262;-83
2023/09/07 01:45:41;;;;;;;;;;;;;;;;;;5030775;28;20203;-83
2023/09/07 01:48:10;;;;;;;;;;;;;;;;;;5033433;28;19961;-82
2023/09/07 01:50:36;;;;;;;;;;;;;;;;;;5041903;28;19975;-82
2023/09/07 01:53:03;;;;;;;;;;;;;;;;;;5030605;28;19973;-82
2023/09/07 01:55:28;;;;;;;;;;;;;;;;;;5016275;28;19935;-82
2023/09/07 01:57:53;;;;;;;;;;;;;;;;;;5034358;28;19921;-82
2023/09/07 02:00:19;;;;;;;;;;;;;;;;;;5012481;28;19920;-82
2023/09/07 02:02:44;;;;;;;;;;;;;;;;;;5012355;28;19924;-82
2023/09/07 02:05:09;;;;;;;;;;;;;;;;;;5032096;28;19928;-83
2023/09/07 02:07:38;;;;;;;;;;;;;;;;;;5021133;28;19967;-82
2023/09/07 02:10:03;;;;;;;;;;;;;;;;;;5007554;28;19960;-82
2023/09/07 02:12:28;;;;;;;;;;;;;;;;;;5019074;28;20427;-82
2023/09/07 02:14:54;;;;;;;;;;;;;;;;;;5018860;28;19927;-82
2023/09/07 02:17:22;;;;;;;;;;;;;;;;;;5053311;28;20365;-81
2023/09/07 02:19:47;;;;;;;;;;;;;;;;;;5052646;28;20335;-82
2023/09/07 02:22:13;;;;;;;;;;;;;;;;;;5026993;28;22676;-81
2023/09/07 02:24:38;;;;;;;;;;;;;;;;;;5018415;28;19971;-82
2023/09/07 02:27:04;;;;;;;;;;;;;;;;;;5034416;28;19929;-82
2023/09/07 02:29:29;;;;;;;;;;;;;;;;;;5037514;28;19917;-82
2023/09/07 02:31:57;;;;;;;;;;;;;;;;;;5035648;28;19928;-82
2023/09/07 02:34:22;;;;;;;;;;;;;;;;;;5035723;28;20347;-81
2023/09/07 02:36:48;;;;;;;;;;;;;;;;;;5017997;28;20008;-81
2023/09/07 02:39:13;;;;;;;;;;;;;;;;;;5011358;28;19925;-81
2023/09/07 02:41:39;;;;;;;;;;;;;;;;;;5010121;28;20423;-82
2023/09/07 02:44:07;;;;;;;;;;;;;;;;;;5037265;28;19925;-82
2023/09/07 02:46:32;;;;;;;;;;;;;;;;;;5016598;28;20327;-82
2023/09/07 02:48:58;;;;;;;;;;;;;;;;;;5050761;28;19928;-82
2023/09/07 02:51:24;;;;;;;;;;;;;;;;;;5051749;28;19926;-81
2023/09/07 02:53:49;;;;;;;;;;;;;;;;;;5023795;28;20438;-81
2023/09/07 02:56:14;;;;;;;;;;;;;;;;;;5012471;28;19945;-82
2023/09/07 02:58:39;;;;;;;;;;;;;;;;;;5018780;28;19921;-81
2023/09/07 03:01:08;;;;;;;;;;;;;;;;;;5019312;28;19921;-81
2023/09/07 03:03:34;;;;;;;;;;;;;;;;;;5020016;28;19925;-81
2023/09/07 03:06:08;;;;;;;;;;;;;;;;;;5018545;28;20050;-82
2023/09/07 03:08:33;;;;;;;;;;;;;;;;;;4992458;28;19925;-83
2023/09/07 03:10:58;;;;;;;;;;;;;;;;;;5031160;28;20367;-82
2023/09/07 03:13:23;;;;;;;;;;;;;;;;;;5050009;28;19948;-82
2023/09/07 03:15:53;;;;;;;;;;;;;;;;;;5019557;28;19928;-82
2023/09/07 03:18:21;;;;;;;;;;;;;;;;;;4995327;28;19922;-83
2023/09/07 03:20:47;;;;;;;;;;;;;;;;;;5049078;28;19928;-82
2023/09/07 03:23:12;;;;;;;;;;;;;;;;;;5019370;28;19921;-83
2023/09/07 03:25:37;;;;;;;;;;;;;;;;;;5016306;28;20372;-82
2023/09/07 03:28:03;;;;;;;;;;;;;;;;;;5037233;28;19917;-82
2023/09/07 03:30:28;;;;;;;;;;;;;;;;;;5020620;28;19924;-83
2023/09/07 03:32:54;;;;;;;;;;;;;;;;;;5013767;28;19961;-82
2023/09/07 03:35:19;;;;;;;;;;;;;;;;;;5051101;28;19928;-83
2023/09/07 03:37:44;;;;;;;;;;;;;;;;;;5033509;28;20431;-84
2023/09/07 03:40:12;;;;;;;;;;;;;;;;;;5015976;28;20395;-85
2023/09/07 03:42:46;;;;;;;;;;;;;;;;;;5020733;28;19925;-84
2023/09/07 03:45:17;;;;;;;;;;;;;;;;;;5045405;28;19921;-83
2023/09/07 03:48:03;;;;;;;;;;;;;;;;;;5007488;28;19921;-83
2023/09/07 03:50:30;;;;;;;;;;;;;;;;;;5018990;28;20337;-83
2023/09/07 03:52:56;;;;;;;;;;;;;;;;;;5041980;28;19921;-85
2023/09/07 03:55:37;;;;;;;;;;;;;;;;;;4999644;28;20031;-82
2023/09/07 03:58:03;;;;;;;;;;;;;;;;;;5034981;28;19936;-80
2023/09/07 04:00:28;;;;;;;;;;;;;;;;;;5003862;28;20352;-80
2023/09/07 04:02:56;;;;;;;;;;;;;;;;;;5027051;28;19921;-79
2023/09/07 04:05:21;;;;;;;;;;;;;;;;;;4992981;28;20040;-80
2023/09/07 04:07:46;;;;;;;;;;;;;;;;;;5049698;28;20379;-81
2023/09/07 04:10:12;;;;;;;;;;;;;;;;;;5023541;28;19944;-80
2023/09/07 04:12:37;;;;;;;;;;;;;;;;;;5028762;28;19984;-80
2023/09/07 04:15:03;;;;;;;;;;;;;;;;;;5010499;28;19921;-80
2023/09/07 04:17:32;;;;;;;;;;;;;;;;;;5007978;28;19917;-80
2023/09/07 04:19:57;;;;;;;;;;;;;;;;;;5047207;28;20305;-80
2023/09/07 04:22:23;;;;;;;;;;;;;;;;;;5009261;28;19935;-80
2023/09/07 04:24:48;;;;;;;;;;;;;;;;;;5010619;28;19921;-82
2023/09/07 04:27:14;;;;;;;;;;;;;;;;;;5038704;28;19935;-82
2023/09/07 04:29:39;;;;;;;;;;;;;;;;;;5035304;28;19947;-81
2023/09/07 04:32:05;;;;;;;;;;;;;;;;;;5048418;28;19967;-81
2023/09/07 04:34:30;;;;;;;;;;;;;;;;;;5017828;28;19927;-82
2023/09/07 04:36:58;;;;;;;;;;;;;;;;;;5016453;28;20297;-81
2023/09/07 04:39:25;;;;;;;;;;;;;;;;;;5006502;28;20377;-82
2023/09/07 04:41:52;;;;;;;;;;;;;;;;;;5048325;28;19923;-81
2023/09/07 04:44:17;;;;;;;;;;;;;;;;;;5028082;28;19960;-82
2023/09/07 04:46:42;;;;;;;;;;;;;;;;;;5030757;28;19963;-81
2023/09/07 04:49:08;;;;;;;;;;;;;;;;;;5017478;28;19922;-82
2023/09/07 04:51:33;;;;;;;;;;;;;;;;;;5033785;28;19972;-82
2023/09/07 04:53:58;;;;;;;;;;;;;;;;;;5023036;28;19955;-82
2023/09/07 04:56:25;;;;;;;;;;;;;;;;;;5019107;28;20404;-81
2023/09/07 04:58:51;;;;;;;;;;;;;;;;;;5017810;28;19917;-81
2023/09/07 05:01:16;;;;;;;;;;;;;;;;;;5033803;28;20044;-80
2023/09/07 05:03:41;;;;;;;;;;;;;;;;;;5023210;28;20296;-81
2023/09/07 05:06:07;;;;;;;;;;;;;;;;;;5013683;28;19960;-79
2023/09/07 05:08:32;;;;;;;;;;;;;;;;;;5018087;28;19931;-80
2023/09/07 05:11:06;;;;;;;;;;;;;;;;;;5032530;28;19932;-79
2023/09/07 05:13:31;;;;;;;;;;;;;;;;;;5041845;28;20389;-80
2023/09/07 05:15:57;;;;;;;;;;;;;;;;;;5007027;28;19983;-80
2023/09/07 05:18:23;;;;;;;;;;;;;;;;;;5035323;28;19921;-79
2023/09/07 05:20:49;;;;;;;;;;;;;;;;;;5018803;28;19921;-80
2023/09/07 05:23:15;;;;;;;;;;;;;;;;;;5051596;28;20328;-80
2023/09/07 05:25:47;;;;;;;;;;;;;;;;;;5024112;28;19975;-80
2023/09/07 05:28:13;;;;;;;;;;;;;;;;;;5005175;28;20320;-80
2023/09/07 05:30:47;;;;;;;;;;;;;;;;;;5002639;28;19925;-80
2023/09/07 05:33:13;;;;;;;;;;;;;;;;;;5001990;28;20003;-80
2023/09/07 05:35:39;;;;;;;;;;;;;;;;;;5031789;28;19921;-80
2023/09/07 05:38:04;;;;;;;;;;;;;;;;;;5014195;28;20388;-80
2023/09/07 05:40:42;;;;;;;;;;;;;;;;;;5007089;28;20364;-80
2023/09/07 05:43:13;;;;;;;;;;;;;;;;;;5024140;28;20043;-80
2023/09/07 05:45:41;;;;;;;;;;;;;;;;;;5007057;28;20235;-81
2023/09/07 05:48:07;;;;;;;;;;;;;;;;;;5009417;28;20717;-80
2023/09/07 05:50:34;;;;;;;;;;;;;;;;;;5018915;28;19921;-81
2023/09/07 05:52:59;;;;;;;;;;;;;;;;;;5002296;28;20015;-82
2023/09/07 05:55:30;;;;;;;;;;;;;;;;;;5033823;28;20012;-81
2023/09/07 05:57:58;;;;;;;;;;;;;;;;;;5019085;28;19921;-81
2023/09/07 06:00:23;;;;;;;;;;;;;;;;;;5035248;28;19960;-81
2023/09/07 06:02:48;;;;;;;;;;;;;;;;;;5037140;28;19960;-81
2023/09/07 06:05:14;;;;;;;;;;;;;;;;;;5002612;28;19925;-80
2023/09/07 06:07:44;;;;;;;;;;;;;;;;;;5051430;28;19921;-80
2023/09/07 06:10:09;;;;;;;;;;;;;;;;;;5035590;28;20296;-80
2023/09/07 06:12:34;;;;;;;;;;;;;;;;;;5029989;28;19928;-81
2023/09/07 06:15:00;;;;;;;;;;;;;;;;;;5008367;28;19922;-82
2023/09/07 06:17:26;;;;;;;;;;;;;;;;;;5033167;28;19921;-81
2023/09/07 06:19:51;;;;;;;;;;;;;;;;;;5019622;28;19952;-81
2023/09/07 06:22:16;;;;;;;;;;;;;;;;;;5050291;28;19925;-81
2023/09/07 06:24:41;;;;;;;;;;;;;;;;;;5051409;28;19928;-81
2023/09/07 06:27:09;;;;;;;;;;;;;;;;;;5000705;28;20287;-80
2023/09/07 06:29:35;;;;;;;;;;;;;;;;;;5024827;28;19916;-80
2023/09/07 06:32:00;;;;;;;;;;;;;;;;;;5018265;28;20006;-81
2023/09/07 06:34:26;;;;;;;;;;;;;;;;;;5041797;28;19970;-81
2023/09/07 06:36:51;;;;;;;;;;;;;;;;;;5016303;28;20405;-81
2023/09/07 06:39:16;;;;;;;;;;;;;;;;;;5034808;28;19923;-81
2023/09/07 06:41:41;;;;;;;;;;;;;;;;;;5039985;28;19921;-80
2023/09/07 06:44:07;;;;;;;;;;;;;;;;;;4999477;28;19921;-81
2023/09/07 06:46:32;;;;;;;;;;;;;;;;;;5034157;28;19921;-80
2023/09/07 06:48:58;;;;;;;;;;;;;;;;;;5050165;28;19917;-81
2023/09/07 06:51:23;;;;;;;;;;;;;;;;;;5010945;28;20024;-81
2023/09/07 06:53:50;;;;;;;;;;;;;;;;;;5002763;28;19921;-80
2023/09/07 06:56:15;;;;;;;;;;;;;;;;;;5022994;28;19983;-81
2023/09/07 06:58:42;;;;;;;;;;;;;;;;;;5037707;28;20373;-81
2023/09/07 07:01:08;;;;;;;;;;;;;;;;;;5004589;28;19967;-80
2023/09/07 07:03:34;;;;;;;;;;;;;;;;;;5049168;28;19924;-80
2023/09/07 07:05:59;;;;;;;;;;;;;;;;;;5050583;28;19921;-81
2023/09/07 07:08:25;;;;;;;;;;;;;;;;;;5043786;28;20262;-81
2023/09/07 07:10:50;;;;;;;;;;;;;;;;;;5051560;28;19927;-81
2023/09/07 07:13:18;;;;;;;;;;;;;;;;;;5036922;28;19975;-81
2023/09/07 07:15:46;;;;;;;;;;;;;;;;;;5033949;28;19943;-81
2023/09/07 07:18:11;;;;;;;;;;;;;;;;;;5038988;28;20130;-81
2023/09/07 07:20:40;;;;;;;;;;;;;;;;;;5041893;28;19972;-80
2023/09/07 07:23:08;;;;;;;;;;;;;;;;;;5022473;28;19920;-81
2023/09/07 07:25:34;;;;;;;;;;;;;;;;;;5027333;28;19935;-81
2023/09/07 07:28:05;;;;;;;;;;;;;;;;;;5037491;28;19944;-81
2023/09/07 07:30:30;;;;;;;;;;;;;;;;;;5053657;28;20410;-82
2023/09/07 07:32:56;;;;;;;;;;;;;;;;;;5035345;28;19925;-81
2023/09/07 07:35:21;;;;;;;;;;;;;;;;;;5003636;28;20284;-82
2023/09/07 07:37:46;;;;;;;;;;;;;;;;;;5044145;28;19917;-82
2023/09/07 07:40:12;;;;;;;;;;;;;;;;;;5043006;28;19928;-82
2023/09/07 07:42:37;;;;;;;;;;;;;;;;;;5045200;28;19937;-81
2023/09/07 07:45:03;;;;;;;;;;;;;;;;;;5015253;28;19921;-82
2023/09/07 07:47:28;;;;;;;;;;;;;;;;;;5003393;28;20115;-80
2023/09/07 07:49:55;;;;;;;;;;;;;;;;;;5018723;28;19928;-81
2023/09/07 07:52:21;;;;;;;;;;;;;;;;;;5029287;28;19952;-82
2023/09/07 07:54:47;;;;;;;;;;;;;;;;;;5022366;28;19998;-82
2023/09/07 07:57:12;;;;;;;;;;;;;;;;;;5019183;28;19921;-82
2023/09/07 07:59:37;;;;;;;;;;;;;;;;;;5025330;28;19917;-82
2023/09/07 08:02:03;;;;;;;;;;;;;;;;;;5035209;28;20471;-82
2023/09/07 08:04:28;;;;;;;;;;;;;;;;;;5019018;28;19991;-81
2023/09/07 08:06:58;;;;;;;;;;;;;;;;;;5049097;28;20016;-83
2023/09/07 08:09:23;;;;;;;;;;;;;;;;;;5021673;28;19929;-81
2023/09/07 08:11:48;;;;;;;;;;;;;;;;;;5019591;28;19932;-82
2023/09/07 08:14:14;;;;;;;;;;;;;;;;;;5042449;28;19924;-83
2023/09/07 08:16:39;;;;;;;;;;;;;;;;;;5044874;28;19921;-84
2023/09/07 08:19:04;;;;;;;;;;;;;;;;;;5053863;28;19921;-84
2023/09/07 08:21:30;;;;;;;;;;;;;;;;;;5037373;28;19927;-83
2023/09/07 08:23:55;;;;;;;;;;;;;;;;;;5049134;28;20012;-84
2023/09/07 08:26:21;;;;;;;;;;;;;;;;;;5032119;28;20284;-84
2023/09/07 08:28:46;;;;;;;;;;;;;;;;;;5039539;28;19929;-83
2023/09/07 08:31:13;;;;;;;;;;;;;;;;;;5009108;28;20380;-84
2023/09/07 08:33:40;;;;;;;;;;;;;;;;;;5039792;28;19944;-84
2023/09/07 08:36:08;;;;;;;;;;;;;;;;;;5024752;28;20316;-83
2023/09/07 08:38:33;;;;;;;;;;;;;;;;;;4995807;28;19921;-83
2023/09/07 08:41:00;;;;;;;;;;;;;;;;;;4999648;28;19995;-83
2023/09/07 08:43:26;;;;;;;;;;;;;;;;;;5009816;28;19998;-84
2023/09/07 08:45:57;;;;;;;;;;;;;;;;;;4991479;28;20051;-85
2023/09/07 08:48:23;;;;;;;;;;;;;;;;;;5042885;28;20004;-83
2023/09/07 08:50:50;;;;;;;;;;;;;;;;;;5052756;28;20059;-84
2023/09/07 08:53:19;;;;;;;;;;;;;;;;;;4999720;28;19921;-82
2023/09/07 08:55:45;;;;;;;;;;;;;;;;;;5030000;28;20460;-80
2023/09/07 08:58:10;;;;;;;;;;;;;;;;;;5026217;28;19968;-83
2023/09/07 09:00:36;;;;;;;;;;;;;;;;;;5032536;28;19913;-83
2023/09/07 09:03:02;;;;;;;;;;;;;;;;;;5014561;28;19921;-83
2023/09/07 09:05:28;;;;;;;;;;;;;;;;;;5020182;28;19929;-83
2023/09/07 09:08:03;;;;;;;;;;;;;;;;;;5018956;28;20286;-83
2023/09/07 09:10:32;;;;;;;;;;;;;;;;;;5002012;28;19932;-82
2023/09/07 09:12:59;;;;;;;;;;;;;;;;;;5015186;28;19925;-82
2023/09/07 09:15:25;;;;;;;;;;;;;;;;;;5004009;28;20381;-83
2023/09/07 09:17:50;;;;;;;;;;;;;;;;;;4995139;28;19967;-82
2023/09/07 09:20:25;;;;;;;;;;;;;;;;;;5046180;28;20027;-82
2023/09/07 09:22:53;;;;;;;;;;;;;;;;;;5051252;28;19921;-81
2023/09/07 09:25:19;;;;;;;;;;;;;;;;;;5016988;28;19957;-82
2023/09/07 09:27:44;;;;;;;;;;;;;;;;;;5043034;28;19983;-83
2023/09/07 09:30:10;;;;;;;;;;;;;;;;;;5036146;28;19925;-84
2023/09/07 09:32:35;;;;;;;;;;;;;;;;;;5052688;28;19963;-82
2023/09/07 09:35:05;;;;;;;;;;;;;;;;;;5001025;28;19921;-82
2023/09/07 09:37:33;;;;;;;;;;;;;;;;;;5032400;28;20387;-83
2023/09/07 09:39:59;;;;;;;;;;;;;;;;;;5017978;28;19983;-82
2023/09/07 09:42:24;;;;;;;;;;;;;;;;;;5024041;28;19920;-83
2023/09/07 09:44:49;;;;;;;;;;;;;;;;;;5034054;28;20042;-83
2023/09/07 09:47:15;;;;;;;;;;;;;;;;;;5019592;28;19916;-82
2023/09/07 09:49:40;;;;;;;;;;;;;;;;;;5015458;28;19921;-82
2023/09/07 09:52:06;;;;;;;;;;;;;;;;;;5035254;28;19945;-82
2023/09/07 09:54:35;;;;;;;;;;;;;;;;;;5021898;28;20292;-83
2023/09/07 09:57:05;;;;;;;;;;;;;;;;;;4999261;28;20439;-82
2023/09/07 09:59:31;;;;;;;;;;;;;;;;;;5037979;28;20009;-82
2023/09/07 10:01:56;;;;;;;;;;;;;;;;;;5020180;28;20312;-82
2023/09/07 10:04:22;;;;;;;;;;;;;;;;;;5003337;28;19928;-83
2023/09/07 10:06:55;;;;;;;;;;;;;;;;;;5005232;28;20483;-82
2023/09/07 10:09:23;;;;;;;;;;;;;;;;;;5028743;28;19925;-81
2023/09/07 10:11:53;;;;;;;;;;;;;;;;;;5052834;28;19925;-83
2023/09/07 10:14:18;;;;;;;;;;;;;;;;;;5041343;28;19921;-82
2023/09/07 10:16:55;;;;;;;;;;;;;;;;;;5030906;28;19932;-82
2023/09/07 10:19:31;;;;;;;;;;;;;;;;;;5025524;28;19974;-82
2023/09/07 10:21:57;;;;;;;;;;;;;;;;;;5039569;28;20353;-82
2023/09/07 10:24:26;;;;;;;;;;;;;;;;;;5039361;28;19970;-81
2023/09/07 10:27:05;;;;;;;;;;;;;;;;;;5039985;28;19924;-83
2023/09/07 10:29:40;;;;;;;;;;;;;;;;;;5010099;28;19917;-80
2023/09/07 10:32:06;;;;;;;;;;;;;;;;;;5040177;28;19998;-79
2023/09/07 10:34:39;;;;;;;;;;;;;;;;;;5026814;28;19928;-79
2023/09/07 10:37:04;;;;;;;;;;;;;;;;;;4997123;28;19952;-80
2023/09/07 10:39:32;;;;;;;;;;;;;;;;;;5022943;28;20361;-80
2023/09/07 10:42:00;;;;;;;;;;;;;;;;;;5033761;28;19920;-80
2023/09/07 10:44:25;;;;;;;;;;;;;;;;;;5015681;28;20604;-81
2023/09/07 10:46:51;;;;;;;;;;;;;;;;;;5015990;28;19917;-82
2023/09/07 10:49:17;;;;;;;;;;;;;;;;;;5001760;28;19922;-81
2023/09/07 10:51:48;;;;;;;;;;;;;;;;;;5011298;28;19932;-81
2023/09/07 10:54:14;;;;;;;;;;;;;;;;;;5021079;28;19921;-80
2023/09/07 10:56:39;;;;;;;;;;;;;;;;;;5023030;28;19934;-81
2023/09/07 10:59:04;;;;;;;;;;;;;;;;;;5022200;28;19925;-79
2023/09/07 11:01:31;;;;;;;;;;;;;;;;;;4999339;28;20012;-80
2023/09/07 11:03:59;;;;;;;;;;;;;;;;;;5011052;28;19931;-80
2023/09/07 11:06:27;;;;;;;;;;;;;;;;;;5027842;28;20369;-81
2023/09/07 11:08:52;;;;;;;;;;;;;;;;;;5044492;28;20547;-81
2023/09/07 11:11:18;;;;;;;;;;;;;;;;;;5004621;28;19963;-81
2023/09/07 11:13:43;;;;;;;;;;;;;;;;;;5045416;28;20300;-80
2023/09/07 11:16:10;;;;;;;;;;;;;;;;;;5028155;28;20003;-81
2023/09/07 11:18:36;;;;;;;;;;;;;;;;;;5034754;28;20004;-82
2023/09/07 11:21:03;;;;;;;;;;;;;;;;;;5025476;28;19932;-80
2023/09/07 11:23:29;;;;;;;;;;;;;;;;;;5034569;28;19921;-80
2023/09/07 11:25:55;;;;;;;;;;;;;;;;;;5004111;28;20008;-81
2023/09/07 11:28:24;;;;;;;;;;;;;;;;;;5009663;28;20015;-80
2023/09/07 11:30:51;;;;;;;;;;;;;;;;;;5021194;28;19923;-81
2023/09/07 11:33:16;;;;;;;;;;;;;;;;;;5052721;28;19925;-82
2023/09/07 11:36:04;;;;;;;;;;;;;;;;;;5053455;28;19920;-81
2023/09/07 11:38:42;;;;;;;;;;;;;;;;;;5034336;28;19920;-81
2023/09/07 11:41:10;;;;;;;;;;;;;;;;;;5021388;28;20004;-82
2023/09/07 11:43:37;;;;;;;;;;;;;;;;;;5038657;28;19920;-80
2023/09/07 11:46:03;;;;;;;;;;;;;;;;;;5041674;28;19960;-81
2023/09/07 11:48:29;;;;;;;;;;;;;;;;;;5045350;28;19920;-81
2023/09/07 11:50:56;;;;;;;;;;;;;;;;;;5054673;28;19920;-84
2023/09/07 11:53:24;;;;;;;;;;;;;;;;;;5054688;28;19936;-84
2023/09/07 11:55:49;;;;;;;;;;;;;;;;;;5034368;28;19917;-85
2023/09/07 11:58:14;;;;;;;;;;;;;;;;;;5054031;28;19929;-84
2023/09/07 12:00:43;;;;;;;;;;;;;;;;;;5035257;28;19928;-84
2023/09/07 12:03:08;;;;;;;;;;;;;;;;;;5055010;28;19964;-84
2023/09/07 12:05:33;;;;;;;;;;;;;;;;;;5043298;28;20431;-85
2023/09/07 12:07:58;;;;;;;;;;;;;;;;;;5014458;28;19944;-85
2023/09/07 12:10:24;;;;;;;;;;;;;;;;;;5006531;28;19928;-83
2023/09/07 12:12:49;;;;;;;;;;;;;;;;;;5019013;28;19940;-84
2023/09/07 12:15:14;;;;;;;;;;;;;;;;;;4992755;28;19925;-83
2023/09/07 12:17:40;;;;;;;;;;;;;;;;;;5008025;28;19925;-82
2023/09/07 12:20:09;;;;;;;;;;;;;;;;;;5015824;28;19925;-83
2023/09/07 12:22:37;;;;;;;;;;;;;;;;;;5007660;28;20007;-83
2023/09/07 12:25:02;;;;;;;;;;;;;;;;;;5001019;28;20012;-83
2023/09/07 12:27:28;;;;;;;;;;;;;;;;;;4990474;28;20052;-83
2023/09/07 12:29:56;;;;;;;;;;;;;;;;;;5003362;28;19925;-85
2023/09/07 12:32:27;;;;;;;;;;;;;;;;;;5001324;28;19921;-83
2023/09/07 12:34:53;;;;;;;;;;;;;;;;;;5000974;28;19976;-79
2023/09/07 12:37:19;;;;;;;;;;;;;;;;;;5017353;28;19921;-79
2023/09/07 12:39:44;;;;;;;;;;;;;;;;;;5029552;28;19921;-78
2023/09/07 12:42:09;;;;;;;;;;;;;;;;;;5015850;28;20259;-79
2023/09/07 12:44:35;;;;;;;;;;;;;;;;;;5035009;28;19982;-78
2023/09/07 12:47:00;;;;;;;;;;;;;;;;;;5035581;28;19924;-79
2023/09/07 12:49:25;;;;;;;;;;;;;;;;;;5020144;28;19929;-80
2023/09/07 12:51:50;;;;;;;;;;;;;;;;;;5007219;28;20270;-78
2023/09/07 12:54:19;;;;;;;;;;;;;;;;;;5026281;28;19968;-78
2023/09/07 12:56:45;;;;;;;;;;;;;;;;;;5012881;28;19928;-79
2023/09/07 12:59:10;;;;;;;;;;;;;;;;;;5017122;28;19917;-80
2023/09/07 13:01:35;;;;;;;;;;;;;;;;;;5023696;28;20546;-79
2023/09/07 13:04:01;;;;;;;;;;;;;;;;;;5035107;28;19967;-79
2023/09/07 13:06:36;;;;;;;;;;;;;;;;;;5016192;28;20285;-79
2023/09/07 13:09:01;;;;;;;;;;;;;;;;;;5033697;28;20411;-81
2023/09/07 13:11:33;;;;;;;;;;;;;;;;;;4998588;28;22128;-80
2023/09/07 13:14:08;;;;;;;;;;;;;;;;;;5032907;28;20054;-80
2023/09/07 13:16:34;;;;;;;;;;;;;;;;;;5041237;28;20800;-80
2023/09/07 13:18:59;;;;;;;;;;;;;;;;;;5000401;28;19924;-80
2023/09/07 13:21:24;;;;;;;;;;;;;;;;;;5022341;28;19929;-81
2023/09/07 13:23:52;;;;;;;;;;;;;;;;;;5001236;28;20475;-79
2023/09/07 13:26:20;;;;;;;;;;;;;;;;;;4998170;28;19921;-80
2023/09/07 13:28:45;;;;;;;;;;;;;;;;;;5027416;28;19922;-81
2023/09/07 13:31:11;;;;;;;;;;;;;;;;;;5027062;28;20903;-80
2023/09/07 13:33:45;;;;;;;;;;;;;;;;;;5001976;28;19925;-80
2023/09/07 13:36:10;;;;;;;;;;;;;;;;;;5006903;28;19922;-79
2023/09/07 13:38:36;;;;;;;;;;;;;;;;;;5017702;28;19932;-80
2023/09/07 13:41:01;;;;;;;;;;;;;;;;;;5014358;28;20276;-80
2023/09/07 13:43:27;;;;;;;;;;;;;;;;;;5019879;28;20016;-80
2023/09/07 13:45:52;;;;;;;;;;;;;;;;;;4999680;28;20424;-80
2023/09/07 13:48:17;;;;;;;;;;;;;;;;;;5013349;28;19917;-80
2023/09/07 13:50:43;;;;;;;;;;;;;;;;;;5029761;28;19971;-80
2023/09/07 13:53:16;;;;;;;;;;;;;;;;;;5009723;28;20400;-80
2023/09/07 13:55:44;;;;;;;;;;;;;;;;;;5034545;28;20281;-81
2023/09/07 13:58:09;;;;;;;;;;;;;;;;;;5035449;28;19928;-81
2023/09/07 14:00:47;;;;;;;;;;;;;;;;;;4996033;28;19917;-79
2023/09/07 14:03:13;;;;;;;;;;;;;;;;;;5012294;28;20396;-80
2023/09/07 14:05:38;;;;;;;;;;;;;;;;;;5007740;28;19918;-81
2023/09/07 14:08:08;;;;;;;;;;;;;;;;;;5023954;28;19928;-79
2023/09/07 14:10:34;;;;;;;;;;;;;;;;;;5017315;28;19968;-80
2023/09/07 14:12:59;;;;;;;;;;;;;;;;;;5010071;28;20405;-79
2023/09/07 14:15:29;;;;;;;;;;;;;;;;;;5020527;28;19917;-80
2023/09/07 14:17:55;;;;;;;;;;;;;;;;;;4996392;28;20376;-81
2023/09/07 14:20:20;;;;;;;;;;;;;;;;;;5033536;28;19925;-79
2023/09/07 14:22:45;;;;;;;;;;;;;;;;;;5054892;28;19921;-80
2023/09/07 14:25:11;;;;;;;;;;;;;;;;;;5045735;28;19926;-80
2023/09/07 14:27:36;;;;;;;;;;;;;;;;;;5016359;28;19929;-79
2023/09/07 14:30:02;;;;;;;;;;;;;;;;;;5045352;28;19921;-80
2023/09/07 14:32:27;;;;;;;;;;;;;;;;;;5029682;28;19921;-80
2023/09/07 14:34:53;;;;;;;;;;;;;;;;;;5039111;28;19955;-81
2023/09/07 14:37:18;;;;;;;;;;;;;;;;;;5022051;28;20019;-80
2023/09/07 14:39:47;;;;;;;;;;;;;;;;;;5015808;28;20004;-79
2023/09/07 14:42:16;;;;;;;;;;;;;;;;;;5024297;28;19978;-80
2023/09/07 14:44:42;;;;;;;;;;;;;;;;;;5044171;28;19921;-80
2023/09/07 14:47:08;;;;;;;;;;;;;;;;;;4986444;28;21051;-80
2023/09/07 14:49:33;;;;;;;;;;;;;;;;;;5055950;28;19917;-80
2023/09/07 14:52:01;;;;;;;;;;;;;;;;;;5026201;28;19924;-80
2023/09/07 14:54:26;;;;;;;;;;;;;;;;;;5018671;28;20528;-80
2023/09/07 14:56:51;;;;;;;;;;;;;;;;;;5054847;28;19921;-81
2023/09/07 14:59:17;;;;;;;;;;;;;;;;;;5043294;28;20051;-79
2023/09/07 15:01:42;;;;;;;;;;;;;;;;;;5021642;28;19920;-81
2023/09/07 15:04:07;;;;;;;;;;;;;;;;;;5034058;28;20036;-80
2023/09/07 15:06:33;;;;;;;;;;;;;;;;;;5004729;28;19921;-80
2023/09/07 15:08:58;;;;;;;;;;;;;;;;;;5020480;28;20454;-80
2023/09/07 15:11:24;;;;;;;;;;;;;;;;;;5042588;28;20004;-80
2023/09/07 15:13:51;;;;;;;;;;;;;;;;;;5003822;28;20764;-79
2023/09/07 15:16:25;;;;;;;;;;;;;;;;;;5019830;28;20003;-80
2023/09/07 15:18:53;;;;;;;;;;;;;;;;;;5044170;28;19956;-79
2023/09/07 15:21:19;;;;;;;;;;;;;;;;;;4994621;28;19921;-79
2023/09/07 15:23:48;;;;;;;;;;;;;;;;;;5022019;28;19921;-79
2023/09/07 15:26:24;;;;;;;;;;;;;;;;;;5025225;28;19921;-79
2023/09/07 15:28:50;;;;;;;;;;;;;;;;;;5011509;28;19970;-78
2023/09/07 15:31:15;;;;;;;;;;;;;;;;;;5015281;28;19929;-80
2023/09/07 15:33:56;;;;;;;;;;;;;;;;;;5044165;28;19927;-80
2023/09/07 15:36:21;;;;;;;;;;;;;;;;;;5009658;28;19965;-79
2023/09/07 15:38:47;;;;;;;;;;;;;;;;;;5026830;28;19964;-80
2023/09/07 15:41:13;;;;;;;;;;;;;;;;;;5023638;28;20422;-79
2023/09/07 15:43:38;;;;;;;;;;;;;;;;;;5022402;28;19964;-79
2023/09/07 15:46:03;;;;;;;;;;;;;;;;;;5030539;28;20019;-79
2023/09/07 15:48:29;;;;;;;;;;;;;;;;;;5013143;28;20000;-80
2023/09/07 15:50:54;;;;;;;;;;;;;;;;;;4985425;28;20259;-80
2023/09/07 15:53:24;;;;;;;;;;;;;;;;;;5002688;28;19921;-79
2023/09/07 15:55:50;;;;;;;;;;;;;;;;;;5008774;28;19921;-79
2023/09/07 15:58:15;;;;;;;;;;;;;;;;;;4994250;28;19979;-81
2023/09/07 16:00:40;;;;;;;;;;;;;;;;;;5003339;28;19967;-80
2023/09/07 16:03:06;;;;;;;;;;;;;;;;;;5006272;28;19932;-79
2023/09/07 16:05:34;;;;;;;;;;;;;;;;;;5002363;28;19914;-80
2023/09/07 16:07:59;;;;;;;;;;;;;;;;;;5015915;28;19925;-80
2023/09/07 16:10:28;;;;;;;;;;;;;;;;;;5005613;28;19930;-80
2023/09/07 16:12:53;;;;;;;;;;;;;;;;;;5014488;28;19925;-80
2023/09/07 16:15:19;;;;;;;;;;;;;;;;;;4999187;28;19921;-80
2023/09/07 16:17:44;;;;;;;;;;;;;;;;;;5044032;28;19921;-80
2023/09/07 16:20:10;;;;;;;;;;;;;;;;;;5011872;28;19925;-80
2023/09/07 16:22:35;;;;;;;;;;;;;;;;;;5032539;28;19921;-80
2023/09/07 16:25:00;;;;;;;;;;;;;;;;;;4999540;28;19929;-80
2023/09/07 16:27:29;;;;;;;;;;;;;;;;;;5001470;28;20043;-80
2023/09/07 16:29:54;;;;;;;;;;;;;;;;;;4988379;28;19921;-81
2023/09/07 16:32:19;;;;;;;;;;;;;;;;;;5024335;28;20506;-80
2023/09/07 16:34:45;;;;;;;;;;;;;;;;;;5047113;28;20695;-80
2023/09/07 16:37:10;;;;;;;;;;;;;;;;;;5034390;28;19927;-79
2023/09/07 16:39:39;;;;;;;;;;;;;;;;;;5020449;28;20000;-79
2023/09/07 16:42:04;;;;;;;;;;;;;;;;;;5027698;28;20397;-79